sensor_id;sensor_type;location;lat;lon;timestamp;temperature;humidity
15394;DHT22;7795;47.986;11.868;2024-03-07T00:00:21;7.60;78.90
15394;DHT22;7795;47.986;11.868;2024-03-07T00:02:48;7.60;78.90
15394;DHT22;7795;47.986;11.868;2024-03-07T00:05:14;7.60;78.90
15394;DHT22;7795;47.986;11.868;2024-03-07T00:07:40;7.60;79.00
15394;DHT22;7795;47.986;11.868;2024-03-07T00:10:07;7.60;79.00
15394;DHT22;7795;47.986;11.868;2024-03-07T00:12:33;7.60;79.00
15394;DHT22;7795;47.986;11.868;2024-03-07T00:15:00;7.60;79.10
15394;DHT22;7795;47.986;11.868;2024-03-07T00:17:26;7.60;79.20
15394;DHT22;7795;47.986;11.868;2024-03-07T00:19:52;7.60;79.40
15394;DHT22;7795;47.986;11.868;2024-03-07T00:22:17;7.60;79.40
15394;DHT22;7795;47.986;11.868;2024-03-07T00:24:44;7.60;79.40
15394;DHT22;7795;47.986;11.868;2024-03-07T00:27:12;7.60;79.40
15394;DHT22;7795;47.986;11.868;2024-03-07T00:29:39;7.60;79.30
15394;DHT22;7795;47.986;11.868;2024-03-07T00:32:07;7.60;79.30
15394;DHT22;7795;47.986;11.868;2024-03-07T00:34:33;7.60;79.30
15394;DHT22;7795;47.986;11.868;2024-03-07T00:36:58;7.60;79.30
15394;DHT22;7795;47.986;11.868;2024-03-07T00:39:24;7.60;79.30
15394;DHT22;7795;47.986;11.868;2024-03-07T00:41:50;7.60;79.40
15394;DHT22;7795;47.986;11.868;2024-03-07T00:44:16;7.60;79.30
15394;DHT22;7795;47.986;11.868;2024-03-07T00:46:42;7.60;79.30
15394;DHT22;7795;47.986;11.868;2024-03-07T00:49:09;7.60;79.20
15394;DHT22;7795;47.986;11.868;2024-03-07T00:51:35;7.60;79.10
15394;DHT22;7795;47.986;11.868;2024-03-07T00:54:01;7.60;79.20
15394;DHT22;7795;47.986;11.868;2024-03-07T00:56:27;7.60;79.20
15394;DHT22;7795;47.986;11.868;2024-03-07T00:58:54;7.60;79.20
15394;DHT22;7795;47.986;11.868;2024-03-07T01:01:19;7.60;79.20
15394;DHT22;7795;47.986;11.868;2024-03-07T01:03:45;7.60;79.20
15394;DHT22;7795;47.986;11.868;2024-03-07T01:06:12;7.60;79.90
15394;DHT22;7795;47.986;11.868;2024-03-07T01:08:38;7.60;79.10
15394;DHT22;7795;47.986;11.868;2024-03-07T01:11:04;7.60;79.00
15394;DHT22;7795;47.986;11.868;2024-03-07T01:13:38;7.50;78.90
15394;DHT22;7795;47.986;11.868;2024-03-07T01:16:04;7.50;78.90
15394;DHT22;7795;47.986;11.868;2024-03-07T01:18:30;7.50;79.00
15394;DHT22;7795;47.986;11.868;2024-03-07T01:20:58;7.50;79.00
15394;DHT22;7795;47.986;11.868;2024-03-07T01:23:26;7.50;79.20
15394;DHT22;7795;47.986;11.868;2024-03-07T01:25:54;7.40;79.20
15394;DHT22;7795;47.986;11.868;2024-03-07T01:28:21;7.50;79.30
15394;DHT22;7795;47.986;11.868;2024-03-07T01:30:48;7.50;79.30
15394;DHT22;7795;47.986;11.868;2024-03-07T01:33:13;7.40;79.40
15394;DHT22;7795;47.986;11.868;2024-03-07T01:35:39;7.50;79.50
15394;DHT22;7795;47.986;11.868;2024-03-07T01:38:05;7.50;79.60
15394;DHT22;7795;47.986;11.868;2024-03-07T01:40:33;7.40;79.50
15394;DHT22;7795;47.986;11.868;2024-03-07T01:43:01;7.50;79.60
15394;DHT22;7795;47.986;11.868;2024-03-07T01:45:26;7.40;79.40
15394;DHT22;7795;47.986;11.868;2024-03-07T01:47:52;7.40;80.10
15394;DHT22;7795;47.986;11.868;2024-03-07T01:50:18;7.40;79.30
15394;DHT22;7795;47.986;11.868;2024-03-07T01:52:44;7.40;79.30
15394;DHT22;7795;47.986;11.868;2024-03-07T01:55:11;7.40;79.40
15394;DHT22;7795;47.986;11.868;2024-03-07T01:57:40;7.40;79.40
15394;DHT22;7795;47.986;11.868;2024-03-07T02:00:07;7.40;79.40
15394;DHT22;7795;47.986;11.868;2024-03-07T02:02:33;7.40;79.50
15394;DHT22;7795;47.986;11.868;2024-03-07T02:04:59;7.40;79.40
15394;DHT22;7795;47.986;11.868;2024-03-07T02:07:25;7.40;79.50
15394;DHT22;7795;47.986;11.868;2024-03-07T02:09:59;7.30;79.50
15394;DHT22;7795;47.986;11.868;2024-03-07T02:12:25;7.40;79.70
15394;DHT22;7795;47.986;11.868;2024-03-07T02:14:52;7.30;79.60
15394;DHT22;7795;47.986;11.868;2024-03-07T02:17:18;7.30;79.60
15394;DHT22;7795;47.986;11.868;2024-03-07T02:19:46;7.30;79.60
15394;DHT22;7795;47.986;11.868;2024-03-07T02:22:13;7.30;79.70
15394;DHT22;7795;47.986;11.868;2024-03-07T02:24:39;7.30;79.60
15394;DHT22;7795;47.986;11.868;2024-03-07T02:27:05;7.30;79.70
15394;DHT22;7795;47.986;11.868;2024-03-07T02:29:31;7.30;79.70
15394;DHT22;7795;47.986;11.868;2024-03-07T02:31:56;7.30;79.70
15394;DHT22;7795;47.986;11.868;2024-03-07T02:34:22;7.30;79.70
15394;DHT22;7795;47.986;11.868;2024-03-07T02:36:48;7.40;79.70
15394;DHT22;7795;47.986;11.868;2024-03-07T02:39:15;7.30;79.70
15394;DHT22;7795;47.986;11.868;2024-03-07T02:41:41;7.30;79.70
15394;DHT22;7795;47.986;11.868;2024-03-07T02:44:07;7.30;79.60
15394;DHT22;7795;47.986;11.868;2024-03-07T02:46:33;7.40;79.70
15394;DHT22;7795;47.986;11.868;2024-03-07T02:48:59;7.40;79.70
15394;DHT22;7795;47.986;11.868;2024-03-07T02:51:26;7.30;79.70
15394;DHT22;7795;47.986;11.868;2024-03-07T02:53:52;7.30;79.80
15394;DHT22;7795;47.986;11.868;2024-03-07T02:56:19;7.40;79.90
15394;DHT22;7795;47.986;11.868;2024-03-07T02:58:45;7.40;79.90
15394;DHT22;7795;47.986;11.868;2024-03-07T03:01:11;7.40;79.90
15394;DHT22;7795;47.986;11.868;2024-03-07T03:03:37;7.40;79.90
15394;DHT22;7795;47.986;11.868;2024-03-07T03:06:03;7.40;79.90
15394;DHT22;7795;47.986;11.868;2024-03-07T03:08:31;7.40;79.90
15394;DHT22;7795;47.986;11.868;2024-03-07T03:10:56;7.40;79.90
15394;DHT22;7795;47.986;11.868;2024-03-07T03:13:25;7.40;79.90
15394;DHT22;7795;47.986;11.868;2024-03-07T03:15:53;7.40;79.90
15394;DHT22;7795;47.986;11.868;2024-03-07T03:18:19;7.40;79.90
15394;DHT22;7795;47.986;11.868;2024-03-07T03:20:44;7.40;80.00
15394;DHT22;7795;47.986;11.868;2024-03-07T03:23:13;7.50;80.20
15394;DHT22;7795;47.986;11.868;2024-03-07T03:25:40;7.50;80.10
15394;DHT22;7795;47.986;11.868;2024-03-07T03:28:06;7.50;80.10
15394;DHT22;7795;47.986;11.868;2024-03-07T03:30:41;7.50;80.80
15394;DHT22;7795;47.986;11.868;2024-03-07T03:33:08;7.50;80.10
15394;DHT22;7795;47.986;11.868;2024-03-07T03:35:34;7.50;80.00
15394;DHT22;7795;47.986;11.868;2024-03-07T03:38:00;7.50;80.00
15394;DHT22;7795;47.986;11.868;2024-03-07T03:40:26;7.50;80.10
15394;DHT22;7795;47.986;11.868;2024-03-07T03:42:52;7.50;80.20
15394;DHT22;7795;47.986;11.868;2024-03-07T03:45:18;7.50;80.20
15394;DHT22;7795;47.986;11.868;2024-03-07T03:47:45;7.60;80.20
15394;DHT22;7795;47.986;11.868;2024-03-07T03:50:13;7.60;80.20
15394;DHT22;7795;47.986;11.868;2024-03-07T03:52:39;7.60;80.20
15394;DHT22;7795;47.986;11.868;2024-03-07T03:55:07;7.60;80.00
15394;DHT22;7795;47.986;11.868;2024-03-07T03:57:35;7.60;79.90
15394;DHT22;7795;47.986;11.868;2024-03-07T04:00:01;7.60;79.90
15394;DHT22;7795;47.986;11.868;2024-03-07T04:02:33;7.60;80.00
15394;DHT22;7795;47.986;11.868;2024-03-07T04:05:00;7.60;80.00
15394;DHT22;7795;47.986;11.868;2024-03-07T04:07:26;7.60;80.00
15394;DHT22;7795;47.986;11.868;2024-03-07T04:09:51;7.60;80.10
15394;DHT22;7795;47.986;11.868;2024-03-07T04:12:19;7.60;80.20
15394;DHT22;7795;47.986;11.868;2024-03-07T04:14:45;7.60;80.20
15394;DHT22;7795;47.986;11.868;2024-03-07T04:17:11;7.60;80.20
15394;DHT22;7795;47.986;11.868;2024-03-07T04:19:38;7.60;80.20
15394;DHT22;7795;47.986;11.868;2024-03-07T04:22:05;7.60;80.20
15394;DHT22;7795;47.986;11.868;2024-03-07T04:24:31;7.60;80.20
15394;DHT22;7795;47.986;11.868;2024-03-07T04:27:00;7.60;80.20
15394;DHT22;7795;47.986;11.868;2024-03-07T04:29:26;7.60;80.20
15394;DHT22;7795;47.986;11.868;2024-03-07T04:31:52;7.60;80.20
15394;DHT22;7795;47.986;11.868;2024-03-07T04:34:18;7.60;80.30
15394;DHT22;7795;47.986;11.868;2024-03-07T04:36:44;7.60;80.40
15394;DHT22;7795;47.986;11.868;2024-03-07T04:39:11;7.60;80.40
15394;DHT22;7795;47.986;11.868;2024-03-07T04:41:48;7.60;80.50
15394;DHT22;7795;47.986;11.868;2024-03-07T04:44:13;7.70;80.50
15394;DHT22;7795;47.986;11.868;2024-03-07T04:46:39;7.60;80.30
15394;DHT22;7795;47.986;11.868;2024-03-07T04:49:08;7.70;80.30
15394;DHT22;7795;47.986;11.868;2024-03-07T04:51:33;7.60;80.20
15394;DHT22;7795;47.986;11.868;2024-03-07T04:53:59;7.60;80.20
15394;DHT22;7795;47.986;11.868;2024-03-07T04:56:26;7.60;80.20
15394;DHT22;7795;47.986;11.868;2024-03-07T04:58:52;7.60;80.20
15394;DHT22;7795;47.986;11.868;2024-03-07T05:01:20;7.60;80.20
15394;DHT22;7795;47.986;11.868;2024-03-07T05:03:45;7.60;80.30
15394;DHT22;7795;47.986;11.868;2024-03-07T05:06:11;7.60;80.40
15394;DHT22;7795;47.986;11.868;2024-03-07T05:08:37;7.60;80.40
15394;DHT22;7795;47.986;11.868;2024-03-07T05:11:03;7.60;80.50
15394;DHT22;7795;47.986;11.868;2024-03-07T05:13:31;7.60;80.50
15394;DHT22;7795;47.986;11.868;2024-03-07T05:15:57;7.60;80.50
15394;DHT22;7795;47.986;11.868;2024-03-07T05:18:23;7.60;80.40
15394;DHT22;7795;47.986;11.868;2024-03-07T05:20:48;7.60;80.50
15394;DHT22;7795;47.986;11.868;2024-03-07T05:23:14;7.50;80.50
15394;DHT22;7795;47.986;11.868;2024-03-07T05:25:40;7.50;80.50
15394;DHT22;7795;47.986;11.868;2024-03-07T05:28:06;7.50;80.60
15394;DHT22;7795;47.986;11.868;2024-03-07T05:30:33;7.50;80.60
15394;DHT22;7795;47.986;11.868;2024-03-07T05:32:58;7.50;80.70
15394;DHT22;7795;47.986;11.868;2024-03-07T05:35:27;7.50;80.80
15394;DHT22;7795;47.986;11.868;2024-03-07T05:37:54;7.50;80.90
15394;DHT22;7795;47.986;11.868;2024-03-07T05:40:22;7.50;80.90
15394;DHT22;7795;47.986;11.868;2024-03-07T05:42:48;7.50;81.00
15394;DHT22;7795;47.986;11.868;2024-03-07T05:45:13;7.50;81.00
15394;DHT22;7795;47.986;11.868;2024-03-07T05:47:41;7.60;81.80
15394;DHT22;7795;47.986;11.868;2024-03-07T05:50:08;7.60;81.00
15394;DHT22;7795;47.986;11.868;2024-03-07T05:52:33;7.50;80.90
15394;DHT22;7795;47.986;11.868;2024-03-07T05:54:59;7.50;80.80
15394;DHT22;7795;47.986;11.868;2024-03-07T05:57:25;7.60;80.90
15394;DHT22;7795;47.986;11.868;2024-03-07T05:59:50;7.50;80.90
15394;DHT22;7795;47.986;11.868;2024-03-07T06:02:16;7.50;81.00
15394;DHT22;7795;47.986;11.868;2024-03-07T06:04:43;7.50;81.00
15394;DHT22;7795;47.986;11.868;2024-03-07T06:07:09;7.50;81.20
15394;DHT22;7795;47.986;11.868;2024-03-07T06:09:36;7.60;81.30
15394;DHT22;7795;47.986;11.868;2024-03-07T06:12:02;7.60;81.30
15394;DHT22;7795;47.986;11.868;2024-03-07T06:14:29;7.60;82.00
15394;DHT22;7795;47.986;11.868;2024-03-07T06:16:56;7.60;81.30
15394;DHT22;7795;47.986;11.868;2024-03-07T06:19:24;7.60;81.30
15394;DHT22;7795;47.986;11.868;2024-03-07T06:21:51;7.60;81.40
15394;DHT22;7795;47.986;11.868;2024-03-07T06:24:18;7.60;82.20
15394;DHT22;7795;47.986;11.868;2024-03-07T06:26:44;7.60;81.40
15394;DHT22;7795;47.986;11.868;2024-03-07T06:29:10;7.60;81.40
15394;DHT22;7795;47.986;11.868;2024-03-07T06:31:39;7.60;81.50
15394;DHT22;7795;47.986;11.868;2024-03-07T06:34:05;7.60;81.50
15394;DHT22;7795;47.986;11.868;2024-03-07T06:36:32;7.60;81.50
15394;DHT22;7795;47.986;11.868;2024-03-07T06:38:59;7.60;81.50
15394;DHT22;7795;47.986;11.868;2024-03-07T06:41:25;7.60;82.20
15394;DHT22;7795;47.986;11.868;2024-03-07T06:43:51;7.60;81.50
15394;DHT22;7795;47.986;11.868;2024-03-07T06:46:20;7.70;81.50
15394;DHT22;7795;47.986;11.868;2024-03-07T06:48:46;7.60;81.50
15394;DHT22;7795;47.986;11.868;2024-03-07T06:51:12;7.60;81.50
15394;DHT22;7795;47.986;11.868;2024-03-07T06:53:38;7.60;81.50
15394;DHT22;7795;47.986;11.868;2024-03-07T06:56:06;7.60;81.30
15394;DHT22;7795;47.986;11.868;2024-03-07T06:58:32;7.60;81.10
15394;DHT22;7795;47.986;11.868;2024-03-07T07:00:57;7.60;81.00
15394;DHT22;7795;47.986;11.868;2024-03-07T07:03:24;7.60;81.00
15394;DHT22;7795;47.986;11.868;2024-03-07T07:05:50;7.50;81.00
15394;DHT22;7795;47.986;11.868;2024-03-07T07:08:16;7.50;81.00
15394;DHT22;7795;47.986;11.868;2024-03-07T07:10:42;7.50;80.90
15394;DHT22;7795;47.986;11.868;2024-03-07T07:13:10;7.50;80.90
15394;DHT22;7795;47.986;11.868;2024-03-07T07:15:36;7.50;80.70
15394;DHT22;7795;47.986;11.868;2024-03-07T07:18:02;7.50;80.70
15394;DHT22;7795;47.986;11.868;2024-03-07T07:20:29;7.50;80.70
15394;DHT22;7795;47.986;11.868;2024-03-07T07:22:54;7.50;80.70
15394;DHT22;7795;47.986;11.868;2024-03-07T07:25:20;7.50;80.70
15394;DHT22;7795;47.986;11.868;2024-03-07T07:27:47;7.50;80.70
15394;DHT22;7795;47.986;11.868;2024-03-07T07:30:16;7.50;80.70
15394;DHT22;7795;47.986;11.868;2024-03-07T07:32:42;7.60;80.70
15394;DHT22;7795;47.986;11.868;2024-03-07T07:35:09;7.50;80.70
15394;DHT22;7795;47.986;11.868;2024-03-07T07:37:37;7.60;80.70
15394;DHT22;7795;47.986;11.868;2024-03-07T07:40:04;7.50;80.50
15394;DHT22;7795;47.986;11.868;2024-03-07T07:42:29;7.60;80.60
15394;DHT22;7795;47.986;11.868;2024-03-07T07:44:55;7.60;80.60
15394;DHT22;7795;47.986;11.868;2024-03-07T07:47:22;7.50;80.60
15394;DHT22;7795;47.986;11.868;2024-03-07T07:49:48;7.60;80.70
15394;DHT22;7795;47.986;11.868;2024-03-07T07:52:14;7.60;80.70
15394;DHT22;7795;47.986;11.868;2024-03-07T07:54:42;7.60;80.70
15394;DHT22;7795;47.986;11.868;2024-03-07T07:57:08;7.60;80.80
15394;DHT22;7795;47.986;11.868;2024-03-07T07:59:34;7.60;80.80
15394;DHT22;7795;47.986;11.868;2024-03-07T08:02:01;7.60;80.80
15394;DHT22;7795;47.986;11.868;2024-03-07T08:04:28;7.70;80.90
15394;DHT22;7795;47.986;11.868;2024-03-07T08:06:53;7.70;80.80
15394;DHT22;7795;47.986;11.868;2024-03-07T08:09:19;7.70;80.80
15394;DHT22;7795;47.986;11.868;2024-03-07T08:11:45;7.70;80.90
15394;DHT22;7795;47.986;11.868;2024-03-07T08:14:11;7.70;80.90
15394;DHT22;7795;47.986;11.868;2024-03-07T08:16:36;7.70;80.80
15394;DHT22;7795;47.986;11.868;2024-03-07T08:19:02;7.80;81.60
15394;DHT22;7795;47.986;11.868;2024-03-07T08:21:30;7.80;80.90
15394;DHT22;7795;47.986;11.868;2024-03-07T08:23:57;7.80;80.80
15394;DHT22;7795;47.986;11.868;2024-03-07T08:26:23;7.80;80.70
15394;DHT22;7795;47.986;11.868;2024-03-07T08:28:49;7.90;80.70
15394;DHT22;7795;47.986;11.868;2024-03-07T08:31:15;7.90;80.70
15394;DHT22;7795;47.986;11.868;2024-03-07T08:33:40;7.90;80.70
15394;DHT22;7795;47.986;11.868;2024-03-07T08:36:06;7.90;80.70
15394;DHT22;7795;47.986;11.868;2024-03-07T08:38:36;7.90;80.70
15394;DHT22;7795;47.986;11.868;2024-03-07T08:41:03;7.90;80.60
15394;DHT22;7795;47.986;11.868;2024-03-07T08:43:28;8.00;80.70
15394;DHT22;7795;47.986;11.868;2024-03-07T08:45:54;8.00;80.60
15394;DHT22;7795;47.986;11.868;2024-03-07T08:48:20;8.00;80.60
15394;DHT22;7795;47.986;11.868;2024-03-07T08:50:46;8.00;80.60
15394;DHT22;7795;47.986;11.868;2024-03-07T08:53:11;8.10;80.70
15394;DHT22;7795;47.986;11.868;2024-03-07T08:55:38;8.10;80.60
15394;DHT22;7795;47.986;11.868;2024-03-07T08:58:05;8.10;80.70
15394;DHT22;7795;47.986;11.868;2024-03-07T09:00:34;8.10;80.70
15394;DHT22;7795;47.986;11.868;2024-03-07T09:03:00;8.20;80.80
15394;DHT22;7795;47.986;11.868;2024-03-07T09:05:29;8.20;80.80
15394;DHT22;7795;47.986;11.868;2024-03-07T09:07:57;8.20;81.50
15394;DHT22;7795;47.986;11.868;2024-03-07T09:10:23;8.20;80.80
15394;DHT22;7795;47.986;11.868;2024-03-07T09:12:56;8.20;80.80
15394;DHT22;7795;47.986;11.868;2024-03-07T09:15:22;8.30;80.80
15394;DHT22;7795;47.986;11.868;2024-03-07T09:17:48;8.30;80.80
15394;DHT22;7795;47.986;11.868;2024-03-07T09:20:14;8.40;81.00
15394;DHT22;7795;47.986;11.868;2024-03-07T09:22:40;8.40;81.10
15394;DHT22;7795;47.986;11.868;2024-03-07T09:25:07;8.40;81.10
15394;DHT22;7795;47.986;11.868;2024-03-07T09:27:33;8.50;81.20
15394;DHT22;7795;47.986;11.868;2024-03-07T09:30:00;8.50;81.10
15394;DHT22;7795;47.986;11.868;2024-03-07T09:32:26;8.60;81.00
15394;DHT22;7795;47.986;11.868;2024-03-07T09:34:53;8.70;81.00
15394;DHT22;7795;47.986;11.868;2024-03-07T09:37:20;8.70;81.00
15394;DHT22;7795;47.986;11.868;2024-03-07T09:39:47;8.80;81.00
15394;DHT22;7795;47.986;11.868;2024-03-07T09:42:17;8.80;80.80
15394;DHT22;7795;47.986;11.868;2024-03-07T09:44:44;8.90;80.70
15394;DHT22;7795;47.986;11.868;2024-03-07T09:47:13;9.00;80.60
15394;DHT22;7795;47.986;11.868;2024-03-07T09:49:39;9.00;80.40
15394;DHT22;7795;47.986;11.868;2024-03-07T09:52:07;9.10;80.50
15394;DHT22;7795;47.986;11.868;2024-03-07T09:54:40;9.20;80.50
15394;DHT22;7795;47.986;11.868;2024-03-07T09:57:07;9.20;80.60
15394;DHT22;7795;47.986;11.868;2024-03-07T09:59:35;9.30;80.50
15394;DHT22;7795;47.986;11.868;2024-03-07T10:02:05;9.40;80.30
15394;DHT22;7795;47.986;11.868;2024-03-07T10:04:38;9.40;79.90
15394;DHT22;7795;47.986;11.868;2024-03-07T10:07:06;9.40;79.40
15394;DHT22;7795;47.986;11.868;2024-03-07T10:09:36;9.50;79.30
15394;DHT22;7795;47.986;11.868;2024-03-07T10:12:03;9.50;79.20
15394;DHT22;7795;47.986;11.868;2024-03-07T10:14:32;9.50;79.20
15394;DHT22;7795;47.986;11.868;2024-03-07T10:16:58;9.50;79.00
15394;DHT22;7795;47.986;11.868;2024-03-07T10:19:24;9.60;78.80
15394;DHT22;7795;47.986;11.868;2024-03-07T10:21:52;9.60;78.80
15394;DHT22;7795;47.986;11.868;2024-03-07T10:24:24;9.60;78.80
15394;DHT22;7795;47.986;11.868;2024-03-07T10:26:50;9.60;78.60
15394;DHT22;7795;47.986;11.868;2024-03-07T10:29:17;9.60;78.50
15394;DHT22;7795;47.986;11.868;2024-03-07T10:31:44;9.50;78.20
15394;DHT22;7795;47.986;11.868;2024-03-07T10:34:11;9.50;78.40
15394;DHT22;7795;47.986;11.868;2024-03-07T10:36:37;9.50;78.50
15394;DHT22;7795;47.986;11.868;2024-03-07T10:39:07;9.40;78.50
15394;DHT22;7795;47.986;11.868;2024-03-07T10:41:45;9.40;78.50
15394;DHT22;7795;47.986;11.868;2024-03-07T10:44:18;9.40;78.70
15394;DHT22;7795;47.986;11.868;2024-03-07T10:46:46;9.30;78.80
15394;DHT22;7795;47.986;11.868;2024-03-07T10:49:19;9.30;78.90
15394;DHT22;7795;47.986;11.868;2024-03-07T10:51:56;9.30;79.00
15394;DHT22;7795;47.986;11.868;2024-03-07T10:54:36;9.30;78.90
15394;DHT22;7795;47.986;11.868;2024-03-07T10:57:12;9.30;78.90
15394;DHT22;7795;47.986;11.868;2024-03-07T10:59:44;9.30;79.90
15394;DHT22;7795;47.986;11.868;2024-03-07T11:02:20;9.30;79.40
15394;DHT22;7795;47.986;11.868;2024-03-07T11:04:50;9.30;79.50
15394;DHT22;7795;47.986;11.868;2024-03-07T11:07:18;9.30;79.60
15394;DHT22;7795;47.986;11.868;2024-03-07T11:09:47;9.30;79.50
15394;DHT22;7795;47.986;11.868;2024-03-07T11:12:15;9.40;79.70
15394;DHT22;7795;47.986;11.868;2024-03-07T11:14:43;9.50;79.80
15394;DHT22;7795;47.986;11.868;2024-03-07T11:17:10;9.50;79.70
15394;DHT22;7795;47.986;11.868;2024-03-07T11:19:38;9.60;79.70
15394;DHT22;7795;47.986;11.868;2024-03-07T11:22:05;9.70;79.50
15394;DHT22;7795;47.986;11.868;2024-03-07T11:24:43;9.70;79.00
15394;DHT22;7795;47.986;11.868;2024-03-07T11:27:10;9.70;78.80
15394;DHT22;7795;47.986;11.868;2024-03-07T11:29:49;9.70;78.90
15394;DHT22;7795;47.986;11.868;2024-03-07T11:32:23;9.80;78.90
15394;DHT22;7795;47.986;11.868;2024-03-07T11:34:49;9.90;79.00
15394;DHT22;7795;47.986;11.868;2024-03-07T11:37:19;9.90;79.10
15394;DHT22;7795;47.986;11.868;2024-03-07T11:39:50;10.00;78.90
15394;DHT22;7795;47.986;11.868;2024-03-07T11:42:27;10.00;78.60
15394;DHT22;7795;47.986;11.868;2024-03-07T11:44:54;10.10;78.30
15394;DHT22;7795;47.986;11.868;2024-03-07T11:47:23;10.20;78.40
15394;DHT22;7795;47.986;11.868;2024-03-07T11:49:50;10.30;78.20
15394;DHT22;7795;47.986;11.868;2024-03-07T11:52:18;10.30;77.90
15394;DHT22;7795;47.986;11.868;2024-03-07T11:54:44;10.40;78.00
15394;DHT22;7795;47.986;11.868;2024-03-07T11:57:15;10.50;77.90
15394;DHT22;7795;47.986;11.868;2024-03-07T11:59:47;10.50;77.60
15394;DHT22;7795;47.986;11.868;2024-03-07T12:02:18;10.60;77.20
15394;DHT22;7795;47.986;11.868;2024-03-07T12:04:47;10.70;77.20
15394;DHT22;7795;47.986;11.868;2024-03-07T12:07:14;10.80;77.10
15394;DHT22;7795;47.986;11.868;2024-03-07T12:09:43;10.80;76.70
15394;DHT22;7795;47.986;11.868;2024-03-07T12:12:11;10.90;76.40
15394;DHT22;7795;47.986;11.868;2024-03-07T12:14:38;10.90;76.10
15394;DHT22;7795;47.986;11.868;2024-03-07T12:17:05;11.00;75.80
15394;DHT22;7795;47.986;11.868;2024-03-07T12:19:32;11.00;75.40
15394;DHT22;7795;47.986;11.868;2024-03-07T12:22:00;11.00;75.40
15394;DHT22;7795;47.986;11.868;2024-03-07T12:24:26;11.00;74.90
15394;DHT22;7795;47.986;11.868;2024-03-07T12:26:52;10.90;75.00
15394;DHT22;7795;47.986;11.868;2024-03-07T12:29:25;10.90;75.70
15394;DHT22;7795;47.986;11.868;2024-03-07T12:31:51;10.90;74.80
15394;DHT22;7795;47.986;11.868;2024-03-07T12:34:19;10.80;75.00
15394;DHT22;7795;47.986;11.868;2024-03-07T12:36:45;10.80;75.00
15394;DHT22;7795;47.986;11.868;2024-03-07T12:39:21;10.80;75.20
15394;DHT22;7795;47.986;11.868;2024-03-07T12:41:50;10.80;74.90
15394;DHT22;7795;47.986;11.868;2024-03-07T12:44:18;10.80;75.20
15394;DHT22;7795;47.986;11.868;2024-03-07T12:46:46;10.80;75.10
15394;DHT22;7795;47.986;11.868;2024-03-07T12:49:12;10.70;75.10
15394;DHT22;7795;47.986;11.868;2024-03-07T12:51:42;10.70;75.30
15394;DHT22;7795;47.986;11.868;2024-03-07T12:54:08;10.70;75.20
15394;DHT22;7795;47.986;11.868;2024-03-07T12:56:37;10.70;75.20
15394;DHT22;7795;47.986;11.868;2024-03-07T12:59:03;10.70;75.80
15394;DHT22;7795;47.986;11.868;2024-03-07T13:01:30;10.70;75.00
15394;DHT22;7795;47.986;11.868;2024-03-07T13:03:56;10.70;75.00
15394;DHT22;7795;47.986;11.868;2024-03-07T13:06:22;10.70;75.10
15394;DHT22;7795;47.986;11.868;2024-03-07T13:08:56;10.70;75.00
15394;DHT22;7795;47.986;11.868;2024-03-07T13:11:22;10.70;75.00
15394;DHT22;7795;47.986;11.868;2024-03-07T13:13:48;10.70;75.10
15394;DHT22;7795;47.986;11.868;2024-03-07T13:16:14;10.70;74.90
15394;DHT22;7795;47.986;11.868;2024-03-07T13:18:40;10.70;74.80
15394;DHT22;7795;47.986;11.868;2024-03-07T13:21:06;10.70;74.80
15394;DHT22;7795;47.986;11.868;2024-03-07T13:23:33;10.70;74.80
15394;DHT22;7795;47.986;11.868;2024-03-07T13:26:01;10.70;74.70
15394;DHT22;7795;47.986;11.868;2024-03-07T13:28:27;10.70;74.50
15394;DHT22;7795;47.986;11.868;2024-03-07T13:30:55;10.70;74.50
15394;DHT22;7795;47.986;11.868;2024-03-07T13:33:21;10.70;74.40
15394;DHT22;7795;47.986;11.868;2024-03-07T13:35:47;10.70;74.50
15394;DHT22;7795;47.986;11.868;2024-03-07T13:38:13;10.70;74.50
15394;DHT22;7795;47.986;11.868;2024-03-07T13:40:40;10.70;74.40
15394;DHT22;7795;47.986;11.868;2024-03-07T13:43:07;10.60;74.30
15394;DHT22;7795;47.986;11.868;2024-03-07T13:45:35;10.60;74.30
15394;DHT22;7795;47.986;11.868;2024-03-07T13:48:10;10.60;74.50
15394;DHT22;7795;47.986;11.868;2024-03-07T13:50:38;10.60;74.70
15394;DHT22;7795;47.986;11.868;2024-03-07T13:53:06;10.50;74.70
15394;DHT22;7795;47.986;11.868;2024-03-07T13:55:53;10.50;74.70
15394;DHT22;7795;47.986;11.868;2024-03-07T13:58:34;10.60;74.70
15394;DHT22;7795;47.986;11.868;2024-03-07T14:01:17;10.60;74.70
15394;DHT22;7795;47.986;11.868;2024-03-07T14:04:27;10.60;74.70
15394;DHT22;7795;47.986;11.868;2024-03-07T14:07:15;10.60;74.50
15394;DHT22;7795;47.986;11.868;2024-03-07T14:09:58;10.60;74.60
15394;DHT22;7795;47.986;11.868;2024-03-07T14:12:56;10.60;74.50
15394;DHT22;7795;47.986;11.868;2024-03-07T14:19:14;10.60;74.10
15394;DHT22;7795;47.986;11.868;2024-03-07T14:22:04;10.70;74.00
15394;DHT22;7795;47.986;11.868;2024-03-07T14:25:03;10.60;74.20
15394;DHT22;7795;47.986;11.868;2024-03-07T14:27:36;10.60;74.00
15394;DHT22;7795;47.986;11.868;2024-03-07T14:30:18;10.60;74.60
15394;DHT22;7795;47.986;11.868;2024-03-07T14:32:49;10.60;74.30
15394;DHT22;7795;47.986;11.868;2024-03-07T14:35:22;10.60;74.50
15394;DHT22;7795;47.986;11.868;2024-03-07T14:37:54;10.60;74.40
15394;DHT22;7795;47.986;11.868;2024-03-07T14:40:22;10.60;74.40
15394;DHT22;7795;47.986;11.868;2024-03-07T14:42:51;10.70;74.40
15394;DHT22;7795;47.986;11.868;2024-03-07T14:45:21;10.60;74.00
15394;DHT22;7795;47.986;11.868;2024-03-07T14:47:50;10.60;73.90
15394;DHT22;7795;47.986;11.868;2024-03-07T14:50:21;10.60;73.70
15394;DHT22;7795;47.986;11.868;2024-03-07T14:52:49;10.60;73.80
15394;DHT22;7795;47.986;11.868;2024-03-07T14:55:15;10.50;74.00
15394;DHT22;7795;47.986;11.868;2024-03-07T14:57:41;10.50;74.10
15394;DHT22;7795;47.986;11.868;2024-03-07T15:00:07;10.50;74.30
15394;DHT22;7795;47.986;11.868;2024-03-07T15:02:43;10.50;74.40
15394;DHT22;7795;47.986;11.868;2024-03-07T15:05:10;10.40;74.30
15394;DHT22;7795;47.986;11.868;2024-03-07T15:07:38;10.40;74.30
15394;DHT22;7795;47.986;11.868;2024-03-07T15:10:06;10.40;74.30
15394;DHT22;7795;47.986;11.868;2024-03-07T15:12:36;10.30;74.10
15394;DHT22;7795;47.986;11.868;2024-03-07T15:15:01;10.30;74.10
15394;DHT22;7795;47.986;11.868;2024-03-07T15:17:27;10.20;74.10
15394;DHT22;7795;47.986;11.868;2024-03-07T15:19:54;10.20;74.00
15394;DHT22;7795;47.986;11.868;2024-03-07T15:22:20;10.20;74.10
15394;DHT22;7795;47.986;11.868;2024-03-07T15:24:47;10.20;74.10
15394;DHT22;7795;47.986;11.868;2024-03-07T15:27:14;10.10;74.10
15394;DHT22;7795;47.986;11.868;2024-03-07T15:29:40;10.10;74.00
15394;DHT22;7795;47.986;11.868;2024-03-07T15:32:06;10.00;74.20
15394;DHT22;7795;47.986;11.868;2024-03-07T15:34:32;9.90;74.30
15394;DHT22;7795;47.986;11.868;2024-03-07T15:37:02;9.90;74.40
15394;DHT22;7795;47.986;11.868;2024-03-07T15:39:28;9.90;74.40
15394;DHT22;7795;47.986;11.868;2024-03-07T15:41:57;9.80;74.40
15394;DHT22;7795;47.986;11.868;2024-03-07T15:44:24;9.80;74.30
15394;DHT22;7795;47.986;11.868;2024-03-07T15:46:51;9.70;74.20
15394;DHT22;7795;47.986;11.868;2024-03-07T15:49:17;9.80;74.30